Kayenta, AZ

2:04 AM MDT on May 26, 2015 (GMT -0600)
RAWS | | Change Station
CLOSE
Current Station
Personal Weather Station
Location: Shonto, AZ
Elevation: 7278 ft
Nearby Weather Stations

Elev 7278 ft 36.68 °N, 110.54 °W | Updated 28 minutes ago

Clear
Clear
48 °F
Feels Like 47 °F
N
4
Wind Variable Wind from SSW
Gusts 8.0 mph

Today
High -- | Low -- °F
--% Chance of Precip.
Yesterday
High -- | Low -- °F
Precip. -- in
6:07 AM 8:31 PM
First Quarter, 56% visible
Pressure 30.15 in
Visibility 10.0 miles
Clouds Overcast 9000 ft
Windchill 47 °F
Dew Point 40 °F
Humidity 73%
Rainfall in
Snow Depth Not available.
UV 0 out of 12
Pollen 4.20 out of 12
Air Quality Not available.
Flu Activity Local Activity
METAR KBDG 260755Z AUTO 01004KT 10SM OVC090 08/07 A3015 RMK AO1 T00830071

More Conditions Fewer Conditions

Pressure 30.15 in
Visibility 10.0 miles
Clouds Overcast 9000 ft
Windchill 47 °F
Dew Point 40 °F
Humidity 73%
Rainfall in
Snow Depth Not available.
UV 0 out of 12
Pollen 4.20 out of 12
Air Quality Not available.
Flu Activity Local Activity
METAR KBDG 260755Z AUTO 01004KT 10SM OVC090 08/07 A3015 RMK AO1 T00830071

More Conditions Fewer Conditions

10-Day Weather Forecast

Almanac

Astronomy

May. 26, 2015 Rise Set
Actual Time
Civil Twilight
Nautical Twilight
Astronomical Twilight
Moon
Length of Visible Light
Length of Day
Tomorrow will be .
, % of the Moon is Illuminated

Today's Extremes

State Highs State Lows

Community

WunderPhotos

Upload Photos

1,824,302 photos uploaded!

WunderBlogs® & News

Nearby

Air Quality

  Air Quality AQ Index Pollutant
Not available.

Snow Depth

Station Depth Elevation

Earthquake Activity

City Distance Mag. Time & Date
Minimum magnitude displayed is 2.5.

Coastal Water Temperatures

Place Temperature

Stations

Nearby Weather Stations

Station Location Temp. Windchill Dew Point Humidity Wind Precip. Elev Updated Type